Time;durP1;ratioP1;P1;durP2;ratioP2;P2;SDS_P1;SDS_P2;PMS_P1;PMS_P2;Temp;Humidity;BMP_temperature;BMP_pressure;BME280_temperature;BME280_humidity;BME280_pressure;Samples;Min_cycle;Max_cycle;Signal;HPM_P1;HPM_P2
2022/03/24 00:00:45;;;;;;;8.65;4.22;;;;;;;2.86;26.84;101702.19;5110508;28;20092;-82
2022/03/24 00:03:10;;;;;;;10.00;4.50;;;;;;;2.89;26.59;101696.72;5105350;28;20039;-82
2022/03/24 00:05:37;;;;;;;9.23;4.43;;;;;;;2.81;27.06;101698.06;5109966;28;20476;-83
2022/03/24 00:08:03;;;;;;;11.98;4.45;;;;;;;2.74;26.99;101695.78;5103817;28;20494;-83
2022/03/24 00:10:30;;;;;;;10.73;4.35;;;;;;;2.86;26.62;101702.19;5087993;28;20028;-82
2022/03/24 00:12:56;;;;;;;12.95;4.40;;;;;;;2.82;26.56;101691.84;5070986;28;20051;-82
2022/03/24 00:15:22;;;;;;;9.35;4.00;;;;;;;2.79;26.37;101686.72;5105431;28;20057;-83
2022/03/24 00:17:49;;;;;;;10.15;4.28;;;;;;;2.83;26.43;101685.56;5111331;28;20499;-83
2022/03/24 00:20:15;;;;;;;9.10;3.92;;;;;;;2.80;26.08;101691.91;5111280;28;20035;-82
2022/03/24 00:22:43;;;;;;;11.27;4.50;;;;;;;2.88;26.32;101684.38;5111874;28;20028;-82
2022/03/24 00:25:10;;;;;;;9.95;4.30;;;;;;;2.88;25.85;101675.53;5109507;28;20062;-82
2022/03/24 00:27:36;;;;;;;8.52;3.85;;;;;;;2.91;25.75;101683.34;5110090;28;20056;-81
2022/03/24 00:30:03;;;;;;;11.93;4.20;;;;;;;2.91;25.88;101667.41;5107729;28;20427;-81
2022/03/24 00:32:28;;;;;;;8.88;4.18;;;;;;;2.95;25.58;101658.34;5071255;28;20050;-82
2022/03/24 00:34:55;;;;;;;9.57;4.17;;;;;;;2.82;26.09;101662.63;5110372;28;20047;-81
2022/03/24 00:37:21;;;;;;;7.82;4.13;;;;;;;2.77;26.04;101649.59;5085646;28;20091;-81
2022/03/24 00:39:51;;;;;;;10.13;4.63;;;;;;;2.76;25.92;101647.88;5109484;28;20055;-82
2022/03/24 00:42:21;;;;;;;10.25;4.85;;;;;;;2.83;25.92;101654.53;5112551;28;20283;-82
2022/03/24 00:44:46;;;;;;;9.25;4.70;;;;;;;2.74;25.49;101629.38;5115594;28;20097;-81
2022/03/24 00:47:15;;;;;;;10.30;4.67;;;;;;;2.72;26.15;101638.38;5112366;28;20040;-81
2022/03/24 00:49:43;;;;;;;11.48;5.10;;;;;;;2.68;25.66;101620.91;5111010;28;20484;-81
2022/03/24 00:52:09;;;;;;;9.88;5.20;;;;;;;2.70;25.76;101629.66;5094432;28;20031;-83
2022/03/24 00:54:35;;;;;;;9.75;4.78;;;;;;;2.64;25.60;101627.31;5105615;28;20024;-82
2022/03/24 00:57:01;;;;;;;13.10;4.88;;;;;;;2.73;25.84;101632.97;5077055;28;20095;-83
2022/03/24 00:59:27;;;;;;;13.20;4.85;;;;;;;2.74;25.59;101634.69;5094388;28;20544;-83
2022/03/24 01:01:56;;;;;;;8.80;4.63;;;;;;;2.64;25.89;101638.78;5082194;28;20064;-84
2022/03/24 01:04:22;;;;;;;9.93;4.72;;;;;;;2.63;25.96;101631.78;5092880;28;20038;-82
2022/03/24 01:06:50;;;;;;;11.82;4.68;;;;;;;2.59;26.16;101626.72;5104838;28;20471;-83
2022/03/24 01:09:16;;;;;;;12.48;4.97;;;;;;;2.62;26.25;101630.09;5110503;28;20036;-82
2022/03/24 01:11:44;;;;;;;11.03;5.57;;;;;;;2.48;26.34;101617.56;5110675;28;20388;-82
2022/03/24 01:14:11;;;;;;;8.77;5.13;;;;;;;2.64;27.01;101625.50;5094281;28;20035;-82
2022/03/24 01:16:38;;;;;;;15.57;5.93;;;;;;;2.53;27.73;101625.28;5090621;28;20039;-83
2022/03/24 01:19:05;;;;;;;14.60;6.60;;;;;;;2.42;28.48;101617.91;5091571;28;20032;-82
2022/03/24 01:21:31;;;;;;;15.95;6.88;;;;;;;2.17;29.35;101613.06;5108261;28;20028;-81
2022/03/24 01:23:56;;;;;;;15.98;7.28;;;;;;;1.97;30.64;101618.63;5110383;28;20047;-82
2022/03/24 01:26:23;;;;;;;15.70;6.63;;;;;;;1.80;30.94;101607.13;5115493;28;20031;-82
2022/03/24 01:28:50;;;;;;;;;;;;;;;1.72;31.17;101611.97;5102495;28;20122;-82
2022/03/24 01:31:16;;;;;;;14.38;5.97;;;;;;;1.66;31.21;101604.31;5104552;28;19919;-83
2022/03/24 01:33:42;;;;;;;18.45;6.10;;;;;;;1.69;31.33;101604.19;5094263;28;20816;-81
2022/03/24 01:36:11;;;;;;;;;;;;;;;1.78;30.99;101616.06;5091121;28;20411;-82
2022/03/24 01:38:37;;;;;;;12.23;6.30;;;;;;;1.64;31.25;101595.63;5078033;28;19996;-83
2022/03/24 01:41:03;;;;;;;15.00;6.53;;;;;;;1.38;31.16;101576.63;5112779;28;20042;-84
2022/03/24 01:43:29;;;;;;;;;;;;;;;1.56;30.79;101609.25;5112414;28;20044;-82
2022/03/24 01:45:56;;;;;;;12.80;6.05;;;;;;;1.33;30.95;101586.56;5094790;28;19979;-82
2022/03/24 01:48:22;;;;;;;13.48;6.22;;;;;;;1.40;31.47;101598.56;5114407;28;20043;-82
2022/03/24 01:50:47;;;;;;;18.05;6.45;;;;;;;1.37;31.69;101596.09;5113384;28;20122;-82
2022/03/24 01:53:14;;;;;;;22.37;6.60;;;;;;;1.48;31.95;101599.03;5099336;28;20120;-83
2022/03/24 01:55:40;;;;;;;14.18;6.63;;;;;;;1.43;31.92;101595.78;5102330;28;20043;-82
2022/03/24 01:58:06;;;;;;;;;;;;;;;1.48;32.35;101599.03;5102882;28;20487;-81
2022/03/24 02:00:31;;;;;;;;;;;;;;;1.42;32.32;101603.81;5087178;28;19967;-82
2022/03/24 02:03:02;;;;;;;16.60;7.07;;;;;;;1.23;32.69;101598.59;5109721;28;19977;-81
2022/03/24 02:05:30;;;;;;;15.90;6.63;;;;;;;1.20;32.51;101593.47;5076778;28;20042;-84
2022/03/24 02:07:55;;;;;;;16.25;6.70;;;;;;;1.19;32.63;101575.84;5095581;28;20036;-83
2022/03/24 02:10:21;;;;;;;13.70;7.17;;;;;;;1.17;32.77;101583.88;5099003;28;20118;-81
2022/03/24 02:12:48;;;;;;;13.63;7.00;;;;;;;1.25;32.67;101586.13;5101310;28;20371;-83
2022/03/24 02:15:15;;;;;;;18.95;6.75;;;;;;;1.08;33.00;101588.75;5111994;28;20089;-83
2022/03/24 02:17:41;;;;;;;15.70;6.72;;;;;;;1.05;32.94;101590.66;5115315;28;20100;-81
2022/03/24 02:20:09;;;;;;;13.43;6.30;;;;;;;1.01;32.88;101590.88;5110987;28;20098;-81
2022/03/24 02:22:36;;;;;;;13.10;5.97;;;;;;;0.91;32.92;101581.66;5110094;28;20167;-81
2022/03/24 02:25:03;;;;;;;11.10;5.97;;;;;;;0.95;32.38;101589.38;5106253;28;20054;-81
2022/03/24 02:27:28;;;;;;;12.43;6.45;;;;;;;0.90;32.61;101580.81;5108666;28;20414;-81
2022/03/24 02:29:54;;;;;;;14.10;6.38;;;;;;;0.88;32.94;101581.81;5108888;28;20031;-80
2022/03/24 02:32:20;;;;;;;12.53;6.23;;;;;;;0.73;33.47;101584.28;5101438;28;20078;-80
2022/03/24 02:34:48;;;;;;;15.65;6.00;;;;;;;0.77;33.28;101587.63;5062110;28;20059;-82
2022/03/24 02:37:18;;;;;;;13.80;6.82;;;;;;;0.61;33.89;101569.88;5102284;28;20055;-80
2022/03/24 02:39:47;;;;;;;18.05;6.70;;;;;;;0.61;34.34;101582.25;5092549;28;20032;-82
2022/03/24 02:42:16;;;;;;;15.85;6.55;;;;;;;0.58;34.92;101580.59;5079682;28;20040;-82
2022/03/24 02:44:44;;;;;;;14.45;6.78;;;;;;;0.70;34.98;101583.56;5102739;28;20073;-81
2022/03/24 02:47:11;;;;;;;17.17;6.85;;;;;;;0.67;35.38;101579.28;5098076;28;20064;-81
2022/03/24 02:49:37;;;;;;;17.17;6.38;;;;;;;0.52;35.73;101559.72;5087819;28;20035;-80
2022/03/24 02:52:03;;;;;;;15.15;7.45;;;;;;;0.49;35.62;101575.75;5107735;28;20044;-82
2022/03/24 02:54:29;;;;;;;13.98;7.05;;;;;;;0.51;35.46;101573.88;5099313;28;20057;-81
2022/03/24 02:56:55;;;;;;;15.25;7.15;;;;;;;0.47;34.41;101569.69;5090746;28;20488;-81
2022/03/24 02:59:22;;;;;;;16.43;6.87;;;;;;;0.39;33.89;101553.31;5108379;28;20038;-82
2022/03/24 03:01:53;;;;;;;13.63;7.30;;;;;;;0.47;33.84;101564.41;5103758;28;20277;-81
2022/03/24 03:04:19;;;;;;;13.90;6.80;;;;;;;0.40;33.38;101561.19;5101208;28;20026;-81
2022/03/24 03:06:45;;;;;;;13.35;6.55;;;;;;;0.35;32.54;101547.31;5107424;28;20079;-81
2022/03/24 03:09:14;;;;;;;13.45;6.75;;;;;;;0.52;32.19;101554.44;5092016;28;20119;-81
2022/03/24 03:11:40;;;;;;;15.60;7.00;;;;;;;0.50;31.73;101556.28;5097339;28;20028;-80
2022/03/24 03:14:05;;;;;;;13.50;6.67;;;;;;;0.51;31.63;101547.41;5100145;28;20402;-82
2022/03/24 03:16:33;;;;;;;;;;;;;;;0.53;31.24;101561.44;5098083;28;20278;-81
2022/03/24 03:18:59;;;;;;;12.50;5.90;;;;;;;0.54;31.62;101559.63;5108003;28;19916;-83
2022/03/24 03:21:25;;;;;;;16.95;7.28;;;;;;;0.48;31.32;101558.16;5103904;28;20043;-82
2022/03/24 03:23:51;;;;;;;13.80;7.00;;;;;;;0.46;30.80;101552.06;5097800;28;20032;-81
2022/03/24 03:26:17;;;;;;;16.52;6.68;;;;;;;0.40;31.14;101544.47;5107348;28;20035;-81
2022/03/24 03:28:44;;;;;;;;;;;;;;;0.49;31.22;101554.59;5108532;28;20070;-81
2022/03/24 03:31:10;;;;;;;17.88;6.00;;;;;;;0.57;31.06;101541.84;5109157;28;19932;-82
2022/03/24 03:33:37;;;;;;;17.05;6.10;;;;;;;0.56;30.97;101536.59;5091796;28;20592;-80
2022/03/24 03:36:05;;;;;;;12.15;5.47;;;;;;;0.50;30.77;101532.47;5082029;28;20075;-82
2022/03/24 03:38:32;;;;;;;10.45;5.53;;;;;;;0.59;30.47;101539.97;5089846;28;20111;-81
2022/03/24 03:40:57;;;;;;;11.60;6.20;;;;;;;0.66;30.25;101523.81;5081816;28;20415;-80
2022/03/24 03:43:23;;;;;;;10.60;5.53;;;;;;;0.67;29.96;101522.84;5094253;28;20119;-81
2022/03/24 03:45:49;;;;;;;14.37;6.97;;;;;;;0.78;30.03;101539.06;5091038;28;20518;-81
2022/03/24 03:48:15;;;;;;;14.85;5.95;;;;;;;0.68;29.94;101524.56;5098625;28;20357;-81
2022/03/24 03:50:43;;;;;;;11.90;6.53;;;;;;;0.76;29.66;101540.94;5089164;28;20042;-82
2022/03/24 03:53:09;;;;;;;15.32;6.32;;;;;;;0.75;29.94;101536.56;5095153;28;20719;-81
2022/03/24 03:55:57;;;;;;;21.40;6.65;;;;;;;0.74;29.44;101532.22;5111368;28;20075;-81
2022/03/24 03:58:22;;;;;;;13.05;6.57;;;;;;;0.69;29.54;101527.13;5111715;28;20048;-82
2022/03/24 04:00:52;;;;;;;14.40;6.60;;;;;;;0.65;29.64;101522.06;5106661;28;20049;-82
2022/03/24 04:03:54;;;;;;;10.40;6.22;;;;;;;0.70;29.49;101534.13;5110989;28;20023;-82
2022/03/24 04:06:19;;;;;;;18.95;6.78;;;;;;;0.70;29.80;101530.63;5114880;28;20036;-81
2022/03/24 04:08:46;;;;;;;13.93;6.97;;;;;;;0.78;29.57;101526.69;5112049;28;20502;-82
2022/03/24 04:11:13;;;;;;;13.07;6.72;;;;;;;0.80;29.70;101529.25;5106606;28;20099;-81
2022/03/24 04:13:40;;;;;;;12.80;6.82;;;;;;;0.83;29.65;101521.16;5094291;28;20437;-82
2022/03/24 04:16:11;;;;;;;21.55;7.45;;;;;;;0.75;29.77;101518.03;5108903;28;20067;-82
2022/03/24 04:18:41;;;;;;;19.00;7.95;;;;;;;0.78;29.82;101524.03;5111930;28;20031;-81
2022/03/24 04:21:07;;;;;;;21.67;8.48;;;;;;;0.78;29.51;101523.19;5092854;28;20081;-81
2022/03/24 04:23:37;;;;;;;18.15;7.95;;;;;;;0.79;29.55;101512.50;5082386;28;20027;-80
2022/03/24 04:26:04;;;;;;;15.93;7.93;;;;;;;0.86;29.35;101526.28;5123486;27;20041;-81
2022/03/24 04:28:30;;;;;;;13.40;7.65;;;;;;;0.92;29.54;101531.28;5117440;28;20032;-82
2022/03/24 04:30:56;;;;;;;13.90;7.40;;;;;;;0.97;29.75;101521.31;5092981;28;20039;-82
2022/03/24 04:33:23;;;;;;;14.83;7.23;;;;;;;0.97;29.04;101515.16;5074626;28;20047;-82
2022/03/24 04:35:49;;;;;;;19.63;7.57;;;;;;;0.99;29.39;101527.38;5076507;28;20032;-82
2022/03/24 04:38:15;;;;;;;;;;;;;;;1.10;28.91;101523.31;5108608;28;20051;-81
2022/03/24 04:40:41;;;;;;;13.23;7.25;;;;;;;1.05;29.13;101510.31;5106840;28;19916;-81
2022/03/24 04:43:07;;;;;;;17.57;8.30;;;;;;;1.02;29.14;101513.97;5099164;28;20046;-80
2022/03/24 04:45:33;;;;;;;18.23;8.43;;;;;;;1.10;28.95;101520.69;5109902;28;20039;-82
2022/03/24 04:47:59;;;;;;;;;;;;;;;1.18;28.80;101515.84;5095245;28;20031;-81
2022/03/24 04:50:25;;;;;;;16.05;8.52;;;;;;;1.19;28.79;101512.25;5112670;28;19919;-82
2022/03/24 04:52:51;;;;;;;18.30;9.50;;;;;;;1.12;29.07;101513.50;5096153;28;20058;-81
2022/03/24 04:55:17;;;;;;;18.13;9.18;;;;;;;1.14;28.99;101498.41;5107614;28;20058;-81
2022/03/24 04:57:43;;;;;;;19.37;10.03;;;;;;;1.20;29.00;101509.53;5094446;28;20032;-82
2022/03/24 05:00:12;;;;;;;19.83;9.60;;;;;;;1.25;29.22;101517.25;5105308;28;20360;-82
2022/03/24 05:02:38;;;;;;;20.20;10.43;;;;;;;1.24;29.22;101510.22;5113075;28;20348;-81
2022/03/24 05:05:06;;;;;;;25.17;10.75;;;;;;;1.44;28.69;101512.69;5103032;28;20055;-82
2022/03/24 05:07:32;;;;;;;24.77;11.68;;;;;;;1.37;29.07;101500.69;5109317;28;20494;-83
2022/03/24 05:09:58;;;;;;;20.60;10.98;;;;;;;1.33;28.98;101507.09;5106984;28;20019;-82
2022/03/24 05:12:25;;;;;;;23.55;11.07;;;;;;;1.42;28.73;101506.59;5109967;28;20039;-81
2022/03/24 05:15:01;;;;;;;20.90;10.77;;;;;;;1.42;28.68;101492.50;5103556;28;20048;-82
2022/03/24 05:17:28;;;;;;;23.90;11.07;;;;;;;1.66;28.24;101500.94;5115004;28;20039;-82
2022/03/24 05:19:56;;;;;;;26.20;10.73;;;;;;;1.66;28.33;101498.28;5078993;28;20177;-80
2022/03/24 05:22:22;;;;;;;20.90;11.05;;;;;;;1.75;27.70;101499.56;5109459;28;20048;-82
2022/03/24 05:24:48;;;;;;;25.70;11.50;;;;;;;1.89;27.75;101484.63;5086719;28;20051;-80
2022/03/24 05:27:16;;;;;;;24.60;11.27;;;;;;;2.07;27.50;101489.84;5087954;28;20761;-83
2022/03/24 05:29:42;;;;;;;25.33;11.88;;;;;;;2.08;27.47;101486.25;5105861;28;20087;-81
2022/03/24 05:32:09;;;;;;;29.70;11.03;;;;;;;2.19;27.16;101494.47;5107129;28;20045;-83
2022/03/24 05:34:36;;;;;;;24.73;12.05;;;;;;;2.54;26.93;101483.63;5108871;28;20120;-83
2022/03/24 05:37:03;;;;;;;25.45;13.43;;;;;;;2.66;26.73;101484.72;5102439;28;20395;-82
2022/03/24 05:39:29;;;;;;;27.73;12.48;;;;;;;2.84;26.52;101477.47;5091794;28;20075;-81
2022/03/24 05:41:57;;;;;;;25.52;12.80;;;;;;;3.02;26.44;101479.03;5107791;28;20206;-81
2022/03/24 05:44:35;;;;;;;34.22;13.13;;;;;;;4.05;25.20;101485.06;5095180;28;20038;-81
2022/03/24 05:47:08;;;;;;;25.92;13.95;;;;;;;6.57;22.07;101472.94;5113614;28;20036;-80
2022/03/24 05:50:02;;;;;;;25.02;13.68;;;;;;;8.65;20.04;101477.81;5105793;28;20115;-79
2022/03/24 05:52:41;;;;;;;25.33;13.32;;;;;;;10.35;17.70;101458.56;5095659;28;20044;-79
2022/03/24 05:55:26;;;;;;;;;;;;;;;12.15;16.44;101469.34;5102350;28;20547;-81
2022/03/24 05:57:51;;;;;;;26.95;13.45;;;;;;;13.05;15.24;101458.50;5102904;28;20005;-80
2022/03/24 06:00:18;;;;;;;28.00;14.23;;;;;;;14.51;14.18;101456.59;5108937;28;20135;-81
2022/03/24 06:02:44;;;;;;;25.63;14.90;;;;;;;15.72;13.20;101455.84;5084598;28;20436;-80
2022/03/24 06:05:12;;;;;;;26.58;15.27;;;;;;;15.50;13.37;101454.69;5097810;28;20072;-80
2022/03/24 06:07:40;;;;;;;26.40;14.05;;;;;;;16.46;12.75;101462.56;5104012;28;20040;-82
2022/03/24 06:10:08;;;;;;;25.33;14.60;;;;;;;16.71;12.41;101445.25;5111984;28;20408;-82
2022/03/24 06:12:34;;;;;;;24.05;14.82;;;;;;;17.78;11.65;101447.75;5104329;28;20031;-82
2022/03/24 06:15:00;;;;;;;29.27;15.68;;;;;;;18.73;11.17;101442.13;5094327;28;20532;-80
2022/03/24 06:17:26;;;;;;;23.90;15.25;;;;;;;19.29;10.72;101443.19;5110869;28;20043;-81
2022/03/24 06:19:53;;;;;;;;;;;;;;;18.90;10.86;101445.44;5095314;28;20049;-80
2022/03/24 06:22:19;;;;;;;33.17;15.75;;;;;;;19.50;10.91;101448.59;5103431;28;19920;-82
2022/03/24 06:24:44;;;;;;;;;;;;;;;20.44;10.39;101444.38;5110971;28;20392;-81
2022/03/24 06:27:09;;;;;;;;;;;;;;;19.68;10.75;101439.91;5100157;28;19923;-80
2022/03/24 06:29:36;;;;;;;;;;;;;;;19.89;11.05;101435.38;5111126;28;19915;-79
2022/03/24 06:32:03;;;;;;;29.90;16.48;;;;;;;20.57;10.92;101432.66;5102384;28;19919;-81
2022/03/24 06:34:33;;;;;;;33.42;16.25;;;;;;;21.14;10.41;101428.47;5098132;28;20840;-83
2022/03/24 06:36:59;;;;;;;24.83;15.63;;;;;;;20.72;10.71;101419.66;5102134;28;20060;-82
2022/03/24 06:39:25;;;;;;;;;;;;;;;21.43;10.29;101424.41;5085244;28;20134;-82
2022/03/24 06:41:51;;;;;;;26.45;15.98;;;;;;;21.42;10.36;101421.88;5103814;28;19933;-81
2022/03/24 06:44:20;;;;;;;28.23;17.40;;;;;;;22.42;9.83;101424.22;5099984;28;20079;-82
2022/03/24 06:46:51;;;;;;;32.00;17.60;;;;;;;23.16;9.32;101419.84;5096317;28;20420;-80
2022/03/24 06:49:17;;;;;;;29.73;16.77;;;;;;;23.50;8.88;101420.31;5098569;28;20040;-82
2022/03/24 06:51:42;;;;;;;26.58;17.23;;;;;;;22.70;9.18;101415.56;5103012;28;20139;-81
2022/03/24 06:54:07;;;;;;;25.88;16.75;;;;;;;23.31;8.99;101413.97;5097138;28;20344;-80
2022/03/24 06:56:33;;;;;;;31.95;15.70;;;;;;;22.54;9.36;101412.31;5119452;28;21331;-80
2022/03/24 06:58:59;;;;;;;24.98;14.77;;;;;;;22.61;9.44;101412.25;5082681;28;20040;-80
2022/03/24 07:01:25;;;;;;;31.38;14.60;;;;;;;22.24;9.40;101411.25;5099565;28;20221;-81
2022/03/24 07:03:52;;;;;;;28.23;13.50;;;;;;;23.56;8.86;101409.25;5095152;28;20042;-83
2022/03/24 07:06:17;;;;;;;21.92;12.75;;;;;;;24.94;8.21;101390.16;5092743;28;20546;-81
2022/03/24 07:08:45;;;;;;;22.33;12.82;;;;;;;25.29;7.78;101394.84;5098979;28;20088;-82
2022/03/24 07:11:13;;;;;;;20.17;13.07;;;;;;;25.92;7.47;101389.56;5093529;28;20126;-82
2022/03/24 07:13:45;;;;;;;19.85;13.07;;;;;;;27.56;6.45;101391.16;5108195;28;20047;-81
2022/03/24 07:16:11;;;;;;;25.42;14.27;;;;;;;26.11;7.25;101391.03;5095035;28;20015;-81
2022/03/24 07:18:36;;;;;;;25.10;14.20;;;;;;;26.43;7.37;101393.25;5123775;28;20398;-82
2022/03/24 07:21:07;;;;;;;25.73;15.85;;;;;;;26.41;7.52;101390.75;5097778;28;20040;-80
2022/03/24 07:23:32;;;;;;;29.95;20.27;;;;;;;26.73;7.13;101393.78;5108286;28;20562;-81
2022/03/24 07:25:58;;;;;;;30.83;21.73;;;;;;;26.75;7.19;101396.31;5114430;28;20044;-80
2022/03/24 07:28:28;;;;;;;38.92;25.15;;;;;;;26.29;7.85;101395.47;5123881;28;20031;-81
2022/03/24 07:30:55;;;;;;;57.00;27.73;;;;;;;27.96;7.23;101403.81;5113945;28;20100;-80
2022/03/24 07:33:21;;;;;;;36.33;24.45;;;;;;;28.45;6.88;101402.06;5114584;28;20071;-80
2022/03/24 07:35:46;;;;;;;43.53;24.42;;;;;;;28.89;6.44;101396.38;5113253;28;20073;-80
2022/03/24 07:38:12;;;;;;;38.47;22.77;;;;;;;28.11;7.18;101394.84;5072616;28;20119;-82
2022/03/24 07:40:38;;;;;;;32.35;20.13;;;;;;;26.78;7.77;101401.31;5108119;28;20214;-81
2022/03/24 07:43:05;;;;;;;26.85;17.70;;;;;;;27.61;7.15;101386.81;5104824;28;20032;-81
2022/03/24 07:45:37;;;;;;;30.98;18.25;;;;;;;26.67;8.14;101400.34;5101710;28;20118;-83
2022/03/24 07:48:25;;;;;;;30.67;18.02;;;;;;;27.96;7.28;101383.66;5114626;28;20027;-80
2022/03/24 07:50:50;;;;;;;33.33;17.92;;;;;;;28.73;7.37;101376.91;5113960;28;20059;-80
2022/03/24 07:53:16;;;;;;;33.70;18.75;;;;;;;29.35;7.02;101383.69;5117545;27;20034;-81
2022/03/24 07:55:42;;;;;;;28.67;17.63;;;;;;;30.34;6.68;101378.19;5117626;28;20047;-81
2022/03/24 07:58:09;;;;;;;39.85;18.38;;;;;;;30.75;6.56;101375.41;5116409;28;20102;-81
2022/03/24 08:00:36;;;;;;;33.25;18.77;;;;;;;31.45;6.45;101369.19;5095227;28;20062;-80
2022/03/24 08:03:02;;;;;;;25.17;16.65;;;;;;;31.69;6.57;101364.63;5113049;28;20496;-82
2022/03/24 08:05:29;;;;;;;36.50;17.38;;;;;;;31.78;6.55;101362.06;5115816;28;20067;-80
2022/03/24 08:07:56;;;;;;;27.50;18.63;;;;;;;31.93;6.59;101363.91;5117676;28;20122;-80
2022/03/24 08:10:26;;;;;;;26.30;19.17;;;;;;;32.08;6.53;101358.31;5114867;28;20062;-80
2022/03/24 08:12:54;;;;;;;37.58;20.10;;;;;;;31.95;6.59;101350.56;5114674;28;20036;-78
2022/03/24 08:15:20;;;;;;;31.90;20.88;;;;;;;31.47;7.06;101336.41;5108501;28;20031;-79
2022/03/24 08:17:46;;;;;;;35.85;20.42;;;;;;;31.39;7.16;101353.63;5100856;28;20048;-81
2022/03/24 08:20:12;;;;;;;30.70;19.08;;;;;;;31.02;7.33;101349.28;5104624;28;20051;-81
2022/03/24 08:22:38;;;;;;;21.15;14.25;;;;;;;31.22;7.51;101348.41;5116230;28;20035;-79
2022/03/24 08:25:08;;;;;;;25.67;14.45;;;;;;;31.12;7.62;101347.31;5114665;28;20080;-82
2022/03/24 08:27:34;;;;;;;28.48;14.70;;;;;;;30.38;8.22;101342.41;5094388;28;20028;-80
2022/03/24 08:30:00;;;;;;;30.40;15.57;;;;;;;30.82;7.92;101345.44;5104062;28;20039;-81
2022/03/24 08:32:28;;;;;;;23.38;14.55;;;;;;;29.61;8.82;101339.47;5113499;28;20476;-80
2022/03/24 08:34:53;;;;;;;23.38;12.82;;;;;;;30.19;8.39;101344.88;5113552;28;20427;-80
2022/03/24 08:37:20;;;;;;;20.77;10.75;;;;;;;30.30;8.59;101332.72;5117188;28;20062;-81
2022/03/24 08:39:47;;;;;;;19.40;10.90;;;;;;;30.96;8.53;101334.59;5115652;28;20078;-81
2022/03/24 08:42:13;;;;;;;22.27;11.55;;;;;;;31.88;8.11;101322.25;5091624;28;20040;-79
2022/03/24 08:44:40;;;;;;;19.52;11.93;;;;;;;31.84;7.93;101321.16;5092423;28;20448;-82
2022/03/24 08:47:06;;;;;;;23.20;12.38;;;;;;;30.88;8.84;101321.28;5115313;28;20139;-82
2022/03/24 08:49:42;;;;;;;21.35;11.57;;;;;;;30.77;8.63;101317.69;5115337;28;20155;-81
2022/03/24 08:52:10;;;;;;;19.17;12.35;;;;;;;30.26;9.02;101306.66;5116398;28;20419;-82
2022/03/24 08:54:37;;;;;;;27.27;13.68;;;;;;;30.09;9.17;101318.81;5098144;28;20118;-82
2022/03/24 08:57:04;;;;;;;24.77;13.05;;;;;;;30.34;9.27;101324.66;5105630;28;20055;-81
2022/03/24 08:59:30;;;;;;;23.55;14.90;;;;;;;29.34;9.56;101314.75;5113702;28;20027;-82
2022/03/24 09:01:57;;;;;;;27.73;16.23;;;;;;;30.35;8.97;101312.47;5086581;28;20036;-81
2022/03/24 09:04:26;;;;;;;25.90;14.48;;;;;;;29.30;9.76;101308.06;5109015;28;20036;-82
2022/03/24 09:06:52;;;;;;;22.42;13.45;;;;;;;29.59;9.72;101309.25;5092289;28;20032;-82
2022/03/24 09:09:22;;;;;;;22.10;13.75;;;;;;;29.83;9.34;101300.50;5105940;28;20026;-81
2022/03/24 09:11:48;;;;;;;24.65;12.02;;;;;;;28.90;9.95;101309.50;5105166;28;20036;-81
2022/03/24 09:14:15;;;;;;;20.08;12.02;;;;;;;29.48;9.36;101304.81;5107637;28;20031;-82
2022/03/24 09:16:41;;;;;;;17.35;11.18;;;;;;;29.67;7.98;101314.31;5098041;28;20092;-82
2022/03/24 09:19:07;;;;;;;15.73;11.75;;;;;;;27.91;8.53;101309.81;5111607;28;20031;-80
2022/03/24 09:21:33;;;;;;;15.68;10.70;;;;;;;27.10;9.18;101307.72;5109945;28;20035;-81
2022/03/24 09:23:58;;;;;;;17.98;11.45;;;;;;;27.07;9.50;101311.00;5111989;28;20503;-82
2022/03/24 09:26:24;;;;;;;16.70;11.23;;;;;;;27.16;9.12;101320.50;5106163;28;20042;-82
2022/03/24 09:28:52;;;;;;;17.27;10.80;;;;;;;25.28;10.08;101311.44;5096100;28;20140;-80
2022/03/24 09:31:20;;;;;;;15.20;10.82;;;;;;;24.91;10.67;101301.78;5109186;28;20403;-79
2022/03/24 09:33:46;;;;;;;18.73;11.63;;;;;;;25.73;10.24;101296.09;5100401;28;20040;-79
2022/03/24 09:36:12;;;;;;;16.70;11.18;;;;;;;25.26;10.89;101277.00;5110874;28;20023;-81
2022/03/24 09:38:42;;;;;;;17.23;10.43;;;;;;;26.50;10.54;101300.19;5090448;28;20040;-81
2022/03/24 09:41:08;;;;;;;21.52;11.18;;;;;;;26.18;9.84;101309.06;5099777;28;20487;-79
2022/03/24 09:43:42;;;;;;;16.95;9.55;;;;;;;25.06;10.34;101302.97;5079837;28;20038;-79
2022/03/24 09:46:08;;;;;;;11.82;9.57;;;;;;;24.72;10.70;101276.34;5102336;28;20043;-80
2022/03/24 09:48:33;;;;;;;11.82;8.77;;;;;;;25.78;10.35;101293.44;5099670;28;20092;-80
2022/03/24 09:50:59;;;;;;;12.95;9.00;;;;;;;25.39;10.75;101295.16;5099026;28;20399;-80
2022/03/24 09:53:25;;;;;;;15.77;8.55;;;;;;;24.59;11.45;101292.00;5089492;28;20063;-81
2022/03/24 09:55:52;;;;;;;18.63;8.75;;;;;;;25.11;11.10;101265.66;5107670;28;20070;-79
2022/03/24 09:58:17;;;;;;;14.88;8.57;;;;;;;26.18;10.33;101281.50;5090355;28;20408;-79
2022/03/24 10:00:45;;;;;;;13.75;8.45;;;;;;;26.35;10.50;101291.69;5101382;28;20043;-80
2022/03/24 10:03:18;;;;;;;13.48;7.95;;;;;;;26.90;10.49;101283.44;5102359;28;20099;-81
2022/03/24 10:06:10;;;;;;;11.82;7.80;;;;;;;25.05;11.26;101286.69;5102178;28;20499;-81
2022/03/24 10:08:38;;;;;;;13.63;7.95;;;;;;;25.46;11.12;101273.81;5107649;28;20028;-88
2022/03/24 10:11:08;;;;;;;10.35;7.72;;;;;;;25.89;10.87;101284.31;5101901;28;20108;-84
2022/03/24 10:13:40;;;;;;;12.63;7.55;;;;;;;25.15;11.85;101277.84;5107277;28;20060;-83
2022/03/24 10:16:09;;;;;;;14.07;8.35;;;;;;;26.06;11.36;101278.81;5110374;28;20050;-84
2022/03/24 10:18:36;;;;;;;11.23;8.07;;;;;;;26.06;10.90;101250.44;5088758;28;20063;-84
2022/03/24 10:21:05;;;;;;;13.00;7.93;;;;;;;27.60;10.29;101274.66;5100499;28;20050;-83
2022/03/24 10:23:33;;;;;;;14.63;7.95;;;;;;;27.38;10.65;101267.22;5112556;28;20039;-87
2022/03/24 10:26:04;;;;;;;15.60;9.40;;;;;;;28.49;10.15;101253.91;5078709;28;20412;-83
2022/03/24 10:28:32;;;;;;;11.65;7.50;;;;;;;27.04;10.58;101263.75;5122195;28;20019;-83
2022/03/24 10:31:03;;;;;;;11.95;7.90;;;;;;;27.10;10.97;101282.03;5124463;28;20040;-84
2022/03/24 10:33:30;;;;;;;15.35;8.30;;;;;;;26.08;11.58;101254.63;5115126;28;20075;-83
2022/03/24 10:36:12;;;;;;;13.48;8.52;;;;;;;26.92;10.69;101252.84;5124518;28;20032;-79
2022/03/24 10:38:40;;;;;;;12.90;7.85;;;;;;;26.22;10.92;101249.59;5124387;28;20488;-83
2022/03/24 10:41:25;;;;;;;13.13;8.55;;;;;;;27.09;10.55;101250.00;5113851;28;20058;-84
2022/03/24 10:43:58;;;;;;;15.65;8.23;;;;;;;26.86;10.95;101248.34;5096235;28;20050;-83
2022/03/24 10:46:35;;;;;;;18.77;8.50;;;;;;;26.66;10.98;101246.97;5110275;28;20039;-83
2022/03/24 10:49:18;;;;;;;13.98;8.18;;;;;;;26.22;11.39;101238.59;5115611;28;20040;-84
2022/03/24 10:51:47;;;;;;;11.45;8.50;;;;;;;26.43;11.63;101236.13;5097000;28;20414;-83
2022/03/24 10:54:25;;;;;;;13.63;8.10;;;;;;;26.15;11.24;101226.03;5099533;28;20114;-85
2022/03/24 10:56:55;;;;;;;13.40;8.65;;;;;;;26.70;11.13;101234.34;5104548;28;20161;-84
2022/03/24 10:59:24;;;;;;;13.45;8.43;;;;;;;26.66;10.93;101221.31;5099735;28;20044;-84
2022/03/24 11:01:53;;;;;;;13.25;7.55;;;;;;;26.39;10.83;101221.19;5115971;28;21860;-82
2022/03/24 11:04:19;;;;;;;12.68;9.05;;;;;;;25.77;11.72;101228.41;5098423;28;20077;-85
2022/03/24 11:06:51;;;;;;;14.10;8.45;;;;;;;26.28;11.40;101218.28;5115250;28;20450;-84
2022/03/24 11:09:26;;;;;;;15.55;9.15;;;;;;;25.82;11.62;101211.97;5114180;28;20024;-84
2022/03/24 11:12:31;;;;;;;16.35;8.65;;;;;;;25.78;11.56;101209.97;5103442;28;20044;-84
2022/03/24 11:15:03;;;;;;;17.23;8.68;;;;;;;24.97;12.24;101205.41;5102834;28;20024;-83
2022/03/24 11:17:36;;;;;;;14.60;9.10;;;;;;;24.70;12.16;101194.13;5111739;28;20069;-82
2022/03/24 11:20:04;;;;;;;14.05;8.45;;;;;;;24.28;12.18;101197.00;5093921;28;20090;-81
2022/03/24 11:22:55;;;;;;;14.43;9.30;;;;;;;23.91;12.69;101191.72;5112280;28;20043;-81
2022/03/24 11:25:23;;;;;;;14.30;9.80;;;;;;;24.81;12.60;101189.66;5114841;28;20054;-82
2022/03/24 11:27:49;;;;;;;14.10;9.07;;;;;;;22.44;14.02;101197.44;5098491;28;20035;-83